sensor_id;sensor_type;location;lat;lon;timestamp;temperature;humidity
17887;DHT22;9069;52.044;7.472;2023-09-19T00:00:18;20.20;94.60
17887;DHT22;9069;52.044;7.472;2023-09-19T00:02:55;20.20;94.60
17887;DHT22;9069;52.044;7.472;2023-09-19T00:05:27;20.10;94.50
17887;DHT22;9069;52.044;7.472;2023-09-19T00:07:56;20.10;94.50
17887;DHT22;9069;52.044;7.472;2023-09-19T00:10:26;20.10;94.80
17887;DHT22;9069;52.044;7.472;2023-09-19T00:12:53;20.10;94.50
17887;DHT22;9069;52.044;7.472;2023-09-19T00:15:25;20.00;94.50
17887;DHT22;9069;52.044;7.472;2023-09-19T00:17:56;20.10;94.50
17887;DHT22;9069;52.044;7.472;2023-09-19T00:20:23;20.00;94.50
17887;DHT22;9069;52.044;7.472;2023-09-19T00:22:51;20.10;94.50
17887;DHT22;9069;52.044;7.472;2023-09-19T00:25:20;20.00;94.50
17887;DHT22;9069;52.044;7.472;2023-09-19T00:27:47;19.90;94.60
17887;DHT22;9069;52.044;7.472;2023-09-19T00:30:16;19.90;94.50
17887;DHT22;9069;52.044;7.472;2023-09-19T00:32:47;19.90;94.60
17887;DHT22;9069;52.044;7.472;2023-09-19T00:35:14;19.90;94.50
17887;DHT22;9069;52.044;7.472;2023-09-19T00:37:45;19.90;94.60
17887;DHT22;9069;52.044;7.472;2023-09-19T00:40:12;19.90;94.60
17887;DHT22;9069;52.044;7.472;2023-09-19T00:42:39;19.90;94.50
17887;DHT22;9069;52.044;7.472;2023-09-19T00:45:11;19.90;94.50
17887;DHT22;9069;52.044;7.472;2023-09-19T00:47:40;19.90;94.50
17887;DHT22;9069;52.044;7.472;2023-09-19T00:50:08;19.90;94.50
17887;DHT22;9069;52.044;7.472;2023-09-19T00:52:37;19.80;94.50
17887;DHT22;9069;52.044;7.472;2023-09-19T00:55:09;19.80;94.50
17887;DHT22;9069;52.044;7.472;2023-09-19T00:57:37;19.80;94.60
17887;DHT22;9069;52.044;7.472;2023-09-19T01:00:07;19.80;94.60
17887;DHT22;9069;52.044;7.472;2023-09-19T01:02:35;19.80;94.60
17887;DHT22;9069;52.044;7.472;2023-09-19T01:05:03;19.80;94.60
17887;DHT22;9069;52.044;7.472;2023-09-19T01:07:32;19.80;94.50
17887;DHT22;9069;52.044;7.472;2023-09-19T01:10:03;19.80;94.50
17887;DHT22;9069;52.044;7.472;2023-09-19T01:13:01;19.70;94.50
17887;DHT22;9069;52.044;7.472;2023-09-19T01:23:38;19.70;94.50
17887;DHT22;9069;52.044;7.472;2023-09-19T01:31:49;19.70;94.50
17887;DHT22;9069;52.044;7.472;2023-09-19T01:34:21;19.70;94.50
17887;DHT22;9069;52.044;7.472;2023-09-19T01:36:47;19.60;94.50
17887;DHT22;9069;52.044;7.472;2023-09-19T01:39:14;19.60;94.50
17887;DHT22;9069;52.044;7.472;2023-09-19T01:41:53;19.60;94.50
17887;DHT22;9069;52.044;7.472;2023-09-19T01:47:41;19.60;94.60
17887;DHT22;9069;52.044;7.472;2023-09-19T01:50:30;19.60;94.50
17887;DHT22;9069;52.044;7.472;2023-09-19T01:53:15;19.60;94.40
17887;DHT22;9069;52.044;7.472;2023-09-19T01:55:48;19.50;94.90
17887;DHT22;9069;52.044;7.472;2023-09-19T02:01:00;19.50;94.60
17887;DHT22;9069;52.044;7.472;2023-09-19T02:03:28;19.50;94.50
17887;DHT22;9069;52.044;7.472;2023-09-19T02:05:55;19.50;94.50
17887;DHT22;9069;52.044;7.472;2023-09-19T02:08:23;19.50;94.50
17887;DHT22;9069;52.044;7.472;2023-09-19T02:10:53;19.40;94.50
17887;DHT22;9069;52.044;7.472;2023-09-19T02:13:22;19.40;94.50
17887;DHT22;9069;52.044;7.472;2023-09-19T02:15:53;19.40;94.50
17887;DHT22;9069;52.044;7.472;2023-09-19T02:18:19;19.40;94.40
17887;DHT22;9069;52.044;7.472;2023-09-19T02:20:47;19.40;94.40
17887;DHT22;9069;52.044;7.472;2023-09-19T02:23:14;19.40;94.40
17887;DHT22;9069;52.044;7.472;2023-09-19T02:25:43;19.40;94.40
17887;DHT22;9069;52.044;7.472;2023-09-19T02:28:10;19.40;94.40
17887;DHT22;9069;52.044;7.472;2023-09-19T02:30:38;19.30;94.30
17887;DHT22;9069;52.044;7.472;2023-09-19T02:33:05;19.30;94.40
17887;DHT22;9069;52.044;7.472;2023-09-19T02:35:32;19.30;94.40
17887;DHT22;9069;52.044;7.472;2023-09-19T02:38:02;19.30;94.30
17887;DHT22;9069;52.044;7.472;2023-09-19T02:40:33;19.30;94.40
17887;DHT22;9069;52.044;7.472;2023-09-19T02:43:03;19.20;94.40
17887;DHT22;9069;52.044;7.472;2023-09-19T02:45:30;19.30;94.40
17887;DHT22;9069;52.044;7.472;2023-09-19T02:47:57;19.20;94.30
17887;DHT22;9069;52.044;7.472;2023-09-19T02:50:24;19.20;94.30
17887;DHT22;9069;52.044;7.472;2023-09-19T02:52:50;19.20;94.30
17887;DHT22;9069;52.044;7.472;2023-09-19T02:55:18;19.10;94.30
17887;DHT22;9069;52.044;7.472;2023-09-19T02:57:49;19.10;94.30
17887;DHT22;9069;52.044;7.472;2023-09-19T03:00:18;19.10;94.30
17887;DHT22;9069;52.044;7.472;2023-09-19T03:02:50;19.10;94.30
17887;DHT22;9069;52.044;7.472;2023-09-19T03:05:17;19.00;94.30
17887;DHT22;9069;52.044;7.472;2023-09-19T03:07:44;19.00;94.30
17887;DHT22;9069;52.044;7.472;2023-09-19T03:10:13;19.00;94.30
17887;DHT22;9069;52.044;7.472;2023-09-19T03:12:42;19.00;94.20
17887;DHT22;9069;52.044;7.472;2023-09-19T03:15:09;19.00;94.20
17887;DHT22;9069;52.044;7.472;2023-09-19T03:17:36;19.00;94.20
17887;DHT22;9069;52.044;7.472;2023-09-19T03:20:03;18.90;94.20
17887;DHT22;9069;52.044;7.472;2023-09-19T03:22:31;18.90;94.20
17887;DHT22;9069;52.044;7.472;2023-09-19T03:24:58;18.90;94.20
17887;DHT22;9069;52.044;7.472;2023-09-19T03:27:25;18.90;94.20
17887;DHT22;9069;52.044;7.472;2023-09-19T03:29:52;18.90;94.20
17887;DHT22;9069;52.044;7.472;2023-09-19T03:32:20;18.80;94.10
17887;DHT22;9069;52.044;7.472;2023-09-19T03:34:47;18.80;94.10
17887;DHT22;9069;52.044;7.472;2023-09-19T03:37:16;18.80;94.10
17887;DHT22;9069;52.044;7.472;2023-09-19T03:39:44;18.80;94.10
17887;DHT22;9069;52.044;7.472;2023-09-19T03:42:11;18.80;94.10
17887;DHT22;9069;52.044;7.472;2023-09-19T03:44:37;18.70;94.10
17887;DHT22;9069;52.044;7.472;2023-09-19T03:47:05;18.70;94.10
17887;DHT22;9069;52.044;7.472;2023-09-19T03:49:32;18.70;94.10
17887;DHT22;9069;52.044;7.472;2023-09-19T03:51:59;18.70;94.10
17887;DHT22;9069;52.044;7.472;2023-09-19T03:54:26;18.60;94.00
17887;DHT22;9069;52.044;7.472;2023-09-19T03:56:53;18.60;94.00
17887;DHT22;9069;52.044;7.472;2023-09-19T03:59:19;18.60;94.00
17887;DHT22;9069;52.044;7.472;2023-09-19T04:01:47;18.50;94.00
17887;DHT22;9069;52.044;7.472;2023-09-19T04:04:14;18.50;93.90
17887;DHT22;9069;52.044;7.472;2023-09-19T04:06:41;18.50;93.90
17887;DHT22;9069;52.044;7.472;2023-09-19T04:09:07;18.50;93.90
17887;DHT22;9069;52.044;7.472;2023-09-19T04:11:37;18.50;93.90
17887;DHT22;9069;52.044;7.472;2023-09-19T04:14:04;18.50;93.90
17887;DHT22;9069;52.044;7.472;2023-09-19T04:16:31;18.50;93.90
17887;DHT22;9069;52.044;7.472;2023-09-19T04:18:59;18.50;93.80
17887;DHT22;9069;52.044;7.472;2023-09-19T04:21:27;18.40;93.70
17887;DHT22;9069;52.044;7.472;2023-09-19T04:23:55;18.40;93.70
17887;DHT22;9069;52.044;7.472;2023-09-19T04:26:22;18.40;93.60
17887;DHT22;9069;52.044;7.472;2023-09-19T04:28:49;18.30;93.60
17887;DHT22;9069;52.044;7.472;2023-09-19T04:31:16;18.40;93.60
17887;DHT22;9069;52.044;7.472;2023-09-19T04:33:43;18.30;93.50
17887;DHT22;9069;52.044;7.472;2023-09-19T04:36:10;18.30;93.50
17887;DHT22;9069;52.044;7.472;2023-09-19T04:38:57;18.30;93.50
17887;DHT22;9069;52.044;7.472;2023-09-19T04:41:24;18.30;93.50
17887;DHT22;9069;52.044;7.472;2023-09-19T04:43:51;18.20;93.40
17887;DHT22;9069;52.044;7.472;2023-09-19T04:46:18;18.20;93.40
17887;DHT22;9069;52.044;7.472;2023-09-19T04:48:45;18.20;93.40
17887;DHT22;9069;52.044;7.472;2023-09-19T04:51:11;18.20;93.40
17887;DHT22;9069;52.044;7.472;2023-09-19T04:53:39;18.20;93.30
17887;DHT22;9069;52.044;7.472;2023-09-19T04:56:06;18.10;93.30
17887;DHT22;9069;52.044;7.472;2023-09-19T04:58:33;18.10;93.20
17887;DHT22;9069;52.044;7.472;2023-09-19T05:01:00;18.10;93.20
17887;DHT22;9069;52.044;7.472;2023-09-19T05:03:30;18.10;93.20
17887;DHT22;9069;52.044;7.472;2023-09-19T05:05:57;18.00;93.10
17887;DHT22;9069;52.044;7.472;2023-09-19T05:08:23;18.00;93.10
17887;DHT22;9069;52.044;7.472;2023-09-19T05:10:50;18.00;93.00
17887;DHT22;9069;52.044;7.472;2023-09-19T05:13:17;18.00;93.00
17887;DHT22;9069;52.044;7.472;2023-09-19T05:15:44;18.00;93.00
17887;DHT22;9069;52.044;7.472;2023-09-19T05:18:11;17.90;92.90
17887;DHT22;9069;52.044;7.472;2023-09-19T05:20:37;17.90;92.90
17887;DHT22;9069;52.044;7.472;2023-09-19T05:23:06;17.90;92.90
17887;DHT22;9069;52.044;7.472;2023-09-19T05:25:40;17.90;92.90
17887;DHT22;9069;52.044;7.472;2023-09-19T05:28:08;17.90;92.90
17887;DHT22;9069;52.044;7.472;2023-09-19T05:30:35;17.90;92.90
17887;DHT22;9069;52.044;7.472;2023-09-19T05:33:03;17.80;92.80
17887;DHT22;9069;52.044;7.472;2023-09-19T05:35:32;17.80;92.80
17887;DHT22;9069;52.044;7.472;2023-09-19T05:37:59;17.80;92.70
17887;DHT22;9069;52.044;7.472;2023-09-19T05:40:26;17.80;92.70
17887;DHT22;9069;52.044;7.472;2023-09-19T05:42:54;18.00;92.80
17887;DHT22;9069;52.044;7.472;2023-09-19T05:45:20;17.80;92.80
17887;DHT22;9069;52.044;7.472;2023-09-19T05:47:51;17.80;92.80
17887;DHT22;9069;52.044;7.472;2023-09-19T05:50:22;17.80;92.70
17887;DHT22;9069;52.044;7.472;2023-09-19T05:52:54;17.80;92.70
17887;DHT22;9069;52.044;7.472;2023-09-19T05:55:23;17.80;92.50
17887;DHT22;9069;52.044;7.472;2023-09-19T05:57:52;17.80;92.60
17887;DHT22;9069;52.044;7.472;2023-09-19T06:00:20;17.80;92.60
17887;DHT22;9069;52.044;7.472;2023-09-19T06:02:52;17.80;92.60
17887;DHT22;9069;52.044;7.472;2023-09-19T06:05:20;17.80;92.70
17887;DHT22;9069;52.044;7.472;2023-09-19T06:07:47;17.80;92.70
17887;DHT22;9069;52.044;7.472;2023-09-19T06:10:14;17.90;92.70
17887;DHT22;9069;52.044;7.472;2023-09-19T06:12:44;17.90;92.80
17887;DHT22;9069;52.044;7.472;2023-09-19T06:15:12;17.90;92.80
17887;DHT22;9069;52.044;7.472;2023-09-19T06:17:49;18.00;93.00
17887;DHT22;9069;52.044;7.472;2023-09-19T06:20:17;18.00;92.90
17887;DHT22;9069;52.044;7.472;2023-09-19T06:22:46;18.10;93.00
17887;DHT22;9069;52.044;7.472;2023-09-19T06:25:14;18.10;93.00
17887;DHT22;9069;52.044;7.472;2023-09-19T06:27:53;18.10;93.00
17887;DHT22;9069;52.044;7.472;2023-09-19T06:30:24;18.20;92.90
17887;DHT22;9069;52.044;7.472;2023-09-19T06:32:59;18.20;92.90
17887;DHT22;9069;52.044;7.472;2023-09-19T06:35:28;18.20;92.70
17887;DHT22;9069;52.044;7.472;2023-09-19T06:38:01;18.30;92.80
17887;DHT22;9069;52.044;7.472;2023-09-19T06:40:30;18.30;92.80
17887;DHT22;9069;52.044;7.472;2023-09-19T06:42:57;18.30;92.80
17887;DHT22;9069;52.044;7.472;2023-09-19T06:45:24;18.40;92.80
17887;DHT22;9069;52.044;7.472;2023-09-19T06:47:54;18.40;92.80
17887;DHT22;9069;52.044;7.472;2023-09-19T06:50:24;18.40;92.80
17887;DHT22;9069;52.044;7.472;2023-09-19T06:52:53;18.40;92.80
17887;DHT22;9069;52.044;7.472;2023-09-19T06:55:22;18.50;92.80
17887;DHT22;9069;52.044;7.472;2023-09-19T06:57:52;18.50;92.80
17887;DHT22;9069;52.044;7.472;2023-09-19T07:00:20;18.50;92.80
17887;DHT22;9069;52.044;7.472;2023-09-19T07:03:00;18.60;92.90
17887;DHT22;9069;52.044;7.472;2023-09-19T07:05:28;18.60;92.90
17887;DHT22;9069;52.044;7.472;2023-09-19T07:07:55;18.70;93.00
17887;DHT22;9069;52.044;7.472;2023-09-19T07:10:22;18.70;93.20
17887;DHT22;9069;52.044;7.472;2023-09-19T07:12:57;18.80;93.30
17887;DHT22;9069;52.044;7.472;2023-09-19T07:15:26;18.90;93.50
17887;DHT22;9069;52.044;7.472;2023-09-19T07:17:54;19.00;93.80
17887;DHT22;9069;52.044;7.472;2023-09-19T07:20:21;19.10;93.90
17887;DHT22;9069;52.044;7.472;2023-09-19T07:22:49;19.30;94.00
17887;DHT22;9069;52.044;7.472;2023-09-19T07:25:17;19.50;93.80
17887;DHT22;9069;52.044;7.472;2023-09-19T07:27:44;19.70;93.60
17887;DHT22;9069;52.044;7.472;2023-09-19T07:30:11;19.90;93.50
17887;DHT22;9069;52.044;7.472;2023-09-19T07:32:38;20.00;93.10
17887;DHT22;9069;52.044;7.472;2023-09-19T07:35:07;20.20;92.90
17887;DHT22;9069;52.044;7.472;2023-09-19T07:37:36;20.30;92.60
17887;DHT22;9069;52.044;7.472;2023-09-19T07:40:03;20.40;92.70
17887;DHT22;9069;52.044;7.472;2023-09-19T07:42:34;20.50;92.20
17887;DHT22;9069;52.044;7.472;2023-09-19T07:45:08;20.70;92.20
17887;DHT22;9069;52.044;7.472;2023-09-19T07:47:35;20.80;91.80
17887;DHT22;9069;52.044;7.472;2023-09-19T07:50:03;20.80;91.60
17887;DHT22;9069;52.044;7.472;2023-09-19T07:52:29;20.90;91.40
17887;DHT22;9069;52.044;7.472;2023-09-19T07:54:56;20.90;91.20
17887;DHT22;9069;52.044;7.472;2023-09-19T07:57:24;21.00;91.00
17887;DHT22;9069;52.044;7.472;2023-09-19T07:59:51;21.00;90.90
17887;DHT22;9069;52.044;7.472;2023-09-19T08:02:18;21.10;90.90
17887;DHT22;9069;52.044;7.472;2023-09-19T08:04:45;21.10;90.80
17887;DHT22;9069;52.044;7.472;2023-09-19T08:07:13;21.20;90.90
17887;DHT22;9069;52.044;7.472;2023-09-19T08:09:40;21.20;90.70
17887;DHT22;9069;52.044;7.472;2023-09-19T08:12:07;21.30;90.70
17887;DHT22;9069;52.044;7.472;2023-09-19T08:14:38;21.40;90.50
17887;DHT22;9069;52.044;7.472;2023-09-19T08:17:08;21.50;90.60
17887;DHT22;9069;52.044;7.472;2023-09-19T08:19:35;21.60;90.40
17887;DHT22;9069;52.044;7.472;2023-09-19T08:22:03;21.60;90.30
17887;DHT22;9069;52.044;7.472;2023-09-19T08:24:30;21.70;90.00
17887;DHT22;9069;52.044;7.472;2023-09-19T08:26:57;21.80;89.80
17887;DHT22;9069;52.044;7.472;2023-09-19T08:29:25;21.90;89.50
17887;DHT22;9069;52.044;7.472;2023-09-19T08:31:55;21.90;89.40
17887;DHT22;9069;52.044;7.472;2023-09-19T08:34:23;22.00;89.20
17887;DHT22;9069;52.044;7.472;2023-09-19T08:36:51;22.10;88.50
17887;DHT22;9069;52.044;7.472;2023-09-19T08:39:20;22.20;88.30
17887;DHT22;9069;52.044;7.472;2023-09-19T08:41:47;22.30;88.30
17887;DHT22;9069;52.044;7.472;2023-09-19T08:44:14;22.40;87.80
17887;DHT22;9069;52.044;7.472;2023-09-19T08:46:42;22.50;88.10
17887;DHT22;9069;52.044;7.472;2023-09-19T08:49:36;22.60;87.90
17887;DHT22;9069;52.044;7.472;2023-09-19T08:52:22;22.80;85.80
17887;DHT22;9069;52.044;7.472;2023-09-19T08:54:59;22.90;85.50
17887;DHT22;9069;52.044;7.472;2023-09-19T08:57:29;23.10;85.10
17887;DHT22;9069;52.044;7.472;2023-09-19T09:00:00;23.20;85.30
17887;DHT22;9069;52.044;7.472;2023-09-19T09:02:28;23.20;84.80
17887;DHT22;9069;52.044;7.472;2023-09-19T09:04:57;23.30;84.10
17887;DHT22;9069;52.044;7.472;2023-09-19T09:07:25;23.50;83.30
17887;DHT22;9069;52.044;7.472;2023-09-19T09:09:54;23.60;82.70
17887;DHT22;9069;52.044;7.472;2023-09-19T09:12:21;23.70;82.10
17887;DHT22;9069;52.044;7.472;2023-09-19T09:14:48;23.80;81.70
17887;DHT22;9069;52.044;7.472;2023-09-19T09:17:17;23.90;82.10
17887;DHT22;9069;52.044;7.472;2023-09-19T09:19:47;24.00;81.40
17887;DHT22;9069;52.044;7.472;2023-09-19T09:22:14;24.10;81.10
17887;DHT22;9069;52.044;7.472;2023-09-19T09:24:53;24.20;80.60
17887;DHT22;9069;52.044;7.472;2023-09-19T09:27:30;24.40;78.90
17887;DHT22;9069;52.044;7.472;2023-09-19T09:29:59;24.50;80.00
17887;DHT22;9069;52.044;7.472;2023-09-19T09:32:30;24.60;79.40
17887;DHT22;9069;52.044;7.472;2023-09-19T09:35:07;24.70;78.70
17887;DHT22;9069;52.044;7.472;2023-09-19T09:37:37;24.80;77.10
17887;DHT22;9069;52.044;7.472;2023-09-19T09:40:05;24.90;77.40
17887;DHT22;9069;52.044;7.472;2023-09-19T09:42:58;24.90;76.90
17887;DHT22;9069;52.044;7.472;2023-09-19T09:45:26;25.00;76.70
17887;DHT22;9069;52.044;7.472;2023-09-19T09:48:00;25.00;76.00
17887;DHT22;9069;52.044;7.472;2023-09-19T09:50:32;25.00;75.30
17887;DHT22;9069;52.044;7.472;2023-09-19T09:56:02;25.10;73.50
17887;DHT22;9069;52.044;7.472;2023-09-19T09:58:34;25.10;72.90
17887;DHT22;9069;52.044;7.472;2023-09-19T10:01:04;25.00;73.50
17887;DHT22;9069;52.044;7.472;2023-09-19T10:03:42;25.00;73.60
17887;DHT22;9069;52.044;7.472;2023-09-19T10:06:16;24.90;73.40
17887;DHT22;9069;52.044;7.472;2023-09-19T10:09:00;24.90;73.50
17887;DHT22;9069;52.044;7.472;2023-09-19T10:11:42;24.80;72.90
17887;DHT22;9069;52.044;7.472;2023-09-19T10:14:16;24.80;73.30
17887;DHT22;9069;52.044;7.472;2023-09-19T10:16:47;24.80;73.60
17887;DHT22;9069;52.044;7.472;2023-09-19T10:19:20;24.80;74.30
17887;DHT22;9069;52.044;7.472;2023-09-19T10:21:50;24.90;74.30
17887;DHT22;9069;52.044;7.472;2023-09-19T10:24:18;24.90;74.60
17887;DHT22;9069;52.044;7.472;2023-09-19T10:26:46;25.00;75.10
17887;DHT22;9069;52.044;7.472;2023-09-19T10:29:17;25.10;74.60
17887;DHT22;9069;52.044;7.472;2023-09-19T10:31:47;25.20;73.30
17887;DHT22;9069;52.044;7.472;2023-09-19T10:34:15;25.30;73.10
17887;DHT22;9069;52.044;7.472;2023-09-19T10:36:45;25.40;72.70
17887;DHT22;9069;52.044;7.472;2023-09-19T10:39:15;25.50;72.20
17887;DHT22;9069;52.044;7.472;2023-09-19T10:41:51;25.40;72.40
17887;DHT22;9069;52.044;7.472;2023-09-19T10:44:32;25.40;71.10
17887;DHT22;9069;52.044;7.472;2023-09-19T10:46:59;25.40;70.40
17887;DHT22;9069;52.044;7.472;2023-09-19T10:49:27;25.30;71.00
17887;DHT22;9069;52.044;7.472;2023-09-19T10:51:57;25.30;70.60
17887;DHT22;9069;52.044;7.472;2023-09-19T10:54:31;25.20;70.50
17887;DHT22;9069;52.044;7.472;2023-09-19T10:57:01;25.20;70.20
17887;DHT22;9069;52.044;7.472;2023-09-19T10:59:32;25.20;70.60
17887;DHT22;9069;52.044;7.472;2023-09-19T11:02:18;25.10;70.70
17887;DHT22;9069;52.044;7.472;2023-09-19T11:04:45;25.00;69.80
17887;DHT22;9069;52.044;7.472;2023-09-19T11:07:15;25.00;70.00
17887;DHT22;9069;52.044;7.472;2023-09-19T11:09:55;24.90;69.40
17887;DHT22;9069;52.044;7.472;2023-09-19T11:15:03;24.80;70.00
17887;DHT22;9069;52.044;7.472;2023-09-19T11:17:40;24.80;70.80
17887;DHT22;9069;52.044;7.472;2023-09-19T11:30:49;24.70;69.70
17887;DHT22;9069;52.044;7.472;2023-09-19T11:33:18;24.70;69.40
17887;DHT22;9069;52.044;7.472;2023-09-19T11:36:03;24.70;69.30
17887;DHT22;9069;52.044;7.472;2023-09-19T11:46:33;24.70;68.00
17887;DHT22;9069;52.044;7.472;2023-09-19T11:49:09;24.70;68.60
17887;DHT22;9069;52.044;7.472;2023-09-19T11:51:42;24.60;68.10
17887;DHT22;9069;52.044;7.472;2023-09-19T11:54:12;24.60;68.00
17887;DHT22;9069;52.044;7.472;2023-09-19T11:56:46;24.60;68.30
17887;DHT22;9069;52.044;7.472;2023-09-19T11:59:20;24.60;68.60
17887;DHT22;9069;52.044;7.472;2023-09-19T12:01:52;24.50;67.60
17887;DHT22;9069;52.044;7.472;2023-09-19T12:04:35;24.40;67.80
17887;DHT22;9069;52.044;7.472;2023-09-19T12:07:08;24.40;67.00
17887;DHT22;9069;52.044;7.472;2023-09-19T12:09:44;24.40;67.70
17887;DHT22;9069;52.044;7.472;2023-09-19T12:12:24;24.30;67.70
17887;DHT22;9069;52.044;7.472;2023-09-19T12:14:55;24.30;67.80
17887;DHT22;9069;52.044;7.472;2023-09-19T12:17:35;24.20;68.10
17887;DHT22;9069;52.044;7.472;2023-09-19T12:20:05;24.20;67.70
17887;DHT22;9069;52.044;7.472;2023-09-19T12:22:46;24.20;68.70
17887;DHT22;9069;52.044;7.472;2023-09-19T12:25:14;24.20;68.70
17887;DHT22;9069;52.044;7.472;2023-09-19T12:27:47;24.20;69.30
17887;DHT22;9069;52.044;7.472;2023-09-19T12:30:15;24.20;69.20
17887;DHT22;9069;52.044;7.472;2023-09-19T12:32:47;24.20;69.00
17887;DHT22;9069;52.044;7.472;2023-09-19T12:35:29;24.20;69.00
17887;DHT22;9069;52.044;7.472;2023-09-19T12:38:03;24.20;68.00
17887;DHT22;9069;52.044;7.472;2023-09-19T12:40:31;24.20;68.80
17887;DHT22;9069;52.044;7.472;2023-09-19T12:43:02;24.20;69.10
17887;DHT22;9069;52.044;7.472;2023-09-19T12:45:32;24.20;68.90
17887;DHT22;9069;52.044;7.472;2023-09-19T12:51:01;24.20;68.30
17887;DHT22;9069;52.044;7.472;2023-09-19T12:53:34;24.20;68.40
17887;DHT22;9069;52.044;7.472;2023-09-19T12:56:07;24.10;69.00
17887;DHT22;9069;52.044;7.472;2023-09-19T12:58:55;24.10;69.20
17887;DHT22;9069;52.044;7.472;2023-09-19T13:01:24;24.00;69.00
17887;DHT22;9069;52.044;7.472;2023-09-19T13:04:15;24.00;69.00
17887;DHT22;9069;52.044;7.472;2023-09-19T13:06:47;24.00;69.10
17887;DHT22;9069;52.044;7.472;2023-09-19T13:09:16;24.20;69.80
17887;DHT22;9069;52.044;7.472;2023-09-19T13:11:43;24.00;69.80
17887;DHT22;9069;52.044;7.472;2023-09-19T13:14:14;24.00;69.50
17887;DHT22;9069;52.044;7.472;2023-09-19T13:17:03;24.00;69.30
17887;DHT22;9069;52.044;7.472;2023-09-19T13:19:42;24.00;69.10
17887;DHT22;9069;52.044;7.472;2023-09-19T13:22:40;24.00;68.80
17887;DHT22;9069;52.044;7.472;2023-09-19T13:25:12;24.00;68.70
17887;DHT22;9069;52.044;7.472;2023-09-19T13:27:53;24.00;69.50
17887;DHT22;9069;52.044;7.472;2023-09-19T13:30:22;24.20;69.30
17887;DHT22;9069;52.044;7.472;2023-09-19T13:32:49;24.00;69.20
17887;DHT22;9069;52.044;7.472;2023-09-19T13:35:17;24.00;68.90
17887;DHT22;9069;52.044;7.472;2023-09-19T13:37:45;24.00;69.10
17887;DHT22;9069;52.044;7.472;2023-09-19T13:40:16;23.90;69.00
17887;DHT22;9069;52.044;7.472;2023-09-19T13:42:43;23.90;69.20
17887;DHT22;9069;52.044;7.472;2023-09-19T13:45:10;23.90;69.10
17887;DHT22;9069;52.044;7.472;2023-09-19T13:47:40;23.90;68.80
17887;DHT22;9069;52.044;7.472;2023-09-19T13:50:08;23.90;68.40
17887;DHT22;9069;52.044;7.472;2023-09-19T13:52:37;23.90;68.00
17887;DHT22;9069;52.044;7.472;2023-09-19T13:55:05;23.90;68.10
17887;DHT22;9069;52.044;7.472;2023-09-19T13:57:33;23.90;68.20
17887;DHT22;9069;52.044;7.472;2023-09-19T14:00:00;23.80;68.30
17887;DHT22;9069;52.044;7.472;2023-09-19T14:02:27;23.80;68.30
17887;DHT22;9069;52.044;7.472;2023-09-19T14:04:54;23.80;68.20
17887;DHT22;9069;52.044;7.472;2023-09-19T14:07:21;23.80;67.90
17887;DHT22;9069;52.044;7.472;2023-09-19T14:09:48;23.70;67.70
17887;DHT22;9069;52.044;7.472;2023-09-19T14:12:15;23.70;67.80
17887;DHT22;9069;52.044;7.472;2023-09-19T14:14:42;23.70;68.00
17887;DHT22;9069;52.044;7.472;2023-09-19T14:17:09;23.60;68.00
17887;DHT22;9069;52.044;7.472;2023-09-19T14:19:36;23.60;68.30
17887;DHT22;9069;52.044;7.472;2023-09-19T14:22:04;23.60;68.30
17887;DHT22;9069;52.044;7.472;2023-09-19T14:24:35;23.60;68.60
17887;DHT22;9069;52.044;7.472;2023-09-19T14:27:02;23.60;68.60
17887;DHT22;9069;52.044;7.472;2023-09-19T14:29:31;23.60;68.60
17887;DHT22;9069;52.044;7.472;2023-09-19T14:31:58;23.60;68.40
17887;DHT22;9069;52.044;7.472;2023-09-19T14:34:27;23.60;69.10
17887;DHT22;9069;52.044;7.472;2023-09-19T14:36:54;23.50;68.20
17887;DHT22;9069;52.044;7.472;2023-09-19T14:39:21;23.50;68.20
17887;DHT22;9069;52.044;7.472;2023-09-19T14:41:48;23.50;68.20
17887;DHT22;9069;52.044;7.472;2023-09-19T14:44:15;23.40;68.30
17887;DHT22;9069;52.044;7.472;2023-09-19T14:46:46;23.40;68.60
17887;DHT22;9069;52.044;7.472;2023-09-19T14:49:13;23.40;69.70
17887;DHT22;9069;52.044;7.472;2023-09-19T14:51:43;23.50;68.90
17887;DHT22;9069;52.044;7.472;2023-09-19T14:54:14;23.30;68.90
17887;DHT22;9069;52.044;7.472;2023-09-19T14:56:45;23.30;69.00
17887;DHT22;9069;52.044;7.472;2023-09-19T14:59:12;23.30;69.20
17887;DHT22;9069;52.044;7.472;2023-09-19T15:01:39;23.30;69.20
17887;DHT22;9069;52.044;7.472;2023-09-19T15:04:07;23.30;69.20
17887;DHT22;9069;52.044;7.472;2023-09-19T15:06:35;23.30;69.30
17887;DHT22;9069;52.044;7.472;2023-09-19T15:09:02;23.20;69.40
17887;DHT22;9069;52.044;7.472;2023-09-19T15:11:31;23.20;69.50
17887;DHT22;9069;52.044;7.472;2023-09-19T15:13:58;23.20;69.40
17887;DHT22;9069;52.044;7.472;2023-09-19T15:16:25;23.20;69.40
17887;DHT22;9069;52.044;7.472;2023-09-19T15:18:52;23.20;69.70
17887;DHT22;9069;52.044;7.472;2023-09-19T15:21:19;23.20;70.00
17887;DHT22;9069;52.044;7.472;2023-09-19T15:23:46;23.10;70.00
17887;DHT22;9069;52.044;7.472;2023-09-19T15:26:14;23.10;69.90
17887;DHT22;9069;52.044;7.472;2023-09-19T15:28:47;23.10;69.90
17887;DHT22;9069;52.044;7.472;2023-09-19T15:31:15;23.10;69.90
17887;DHT22;9069;52.044;7.472;2023-09-19T15:33:41;23.10;69.90
17887;DHT22;9069;52.044;7.472;2023-09-19T15:36:13;23.10;69.90
17887;DHT22;9069;52.044;7.472;2023-09-19T15:39:02;23.10;70.10
17887;DHT22;9069;52.044;7.472;2023-09-19T15:41:37;23.00;70.10
17887;DHT22;9069;52.044;7.472;2023-09-19T15:44:10;23.00;70.10
17887;DHT22;9069;52.044;7.472;2023-09-19T15:46:37;23.00;70.30
17887;DHT22;9069;52.044;7.472;2023-09-19T15:49:04;23.00;70.50
17887;DHT22;9069;52.044;7.472;2023-09-19T15:51:31;23.00;70.50
17887;DHT22;9069;52.044;7.472;2023-09-19T15:53:58;22.90;70.50
17887;DHT22;9069;52.044;7.472;2023-09-19T15:56:27;22.90;70.70
17887;DHT22;9069;52.044;7.472;2023-09-19T15:58:55;22.90;70.70
17887;DHT22;9069;52.044;7.472;2023-09-19T16:01:23;22.90;70.80
17887;DHT22;9069;52.044;7.472;2023-09-19T16:03:51;22.90;70.80
17887;DHT22;9069;52.044;7.472;2023-09-19T16:06:29;22.90;70.60
17887;DHT22;9069;52.044;7.472;2023-09-19T16:08:59;22.80;70.50
17887;DHT22;9069;52.044;7.472;2023-09-19T16:11:27;22.80;70.60
17887;DHT22;9069;52.044;7.472;2023-09-19T16:13:55;22.80;70.80
17887;DHT22;9069;52.044;7.472;2023-09-19T16:16:23;22.80;71.10
17887;DHT22;9069;52.044;7.472;2023-09-19T16:18:52;22.70;71.00
17887;DHT22;9069;52.044;7.472;2023-09-19T16:21:22;22.70;71.10
17887;DHT22;9069;52.044;7.472;2023-09-19T16:23:50;22.70;71.10
17887;DHT22;9069;52.044;7.472;2023-09-19T16:26:17;22.70;71.30
17887;DHT22;9069;52.044;7.472;2023-09-19T16:28:45;22.60;71.10
17887;DHT22;9069;52.044;7.472;2023-09-19T16:31:13;22.60;71.10
17887;DHT22;9069;52.044;7.472;2023-09-19T16:33:41;22.60;71.30
17887;DHT22;9069;52.044;7.472;2023-09-19T16:36:16;22.60;71.10
17887;DHT22;9069;52.044;7.472;2023-09-19T16:38:45;22.60;71.20
17887;DHT22;9069;52.044;7.472;2023-09-19T16:41:12;22.50;71.30
17887;DHT22;9069;52.044;7.472;2023-09-19T16:43:40;22.50;71.50
17887;DHT22;9069;52.044;7.472;2023-09-19T16:46:09;22.50;71.60
17887;DHT22;9069;52.044;7.472;2023-09-19T16:48:40;22.50;71.60